sensor_id;sensor_type;location;lat;lon;timestamp;pressure;altitude;pressure_sealevel;temperature;humidity
74230;BME280;62589;12.568;99.958;2022-10-17T00:01:50;101053.13;;;30.77;53.33
74230;BME280;62589;12.568;99.958;2022-10-17T00:04:17;101048.50;;;30.85;53.24
74230;BME280;62589;12.568;99.958;2022-10-17T00:06:43;101052.97;;;30.89;53.16
74230;BME280;62589;12.568;99.958;2022-10-17T00:09:09;101064.19;;;30.96;52.74
74230;BME280;62589;12.568;99.958;2022-10-17T00:11:36;101050.38;;;31.00;52.71
74230;BME280;62589;12.568;99.958;2022-10-17T00:14:03;101058.75;;;31.03;52.75
74230;BME280;62589;12.568;99.958;2022-10-17T00:16:31;101059.19;;;31.05;52.38
74230;BME280;62589;12.568;99.958;2022-10-17T00:18:59;101065.19;;;31.07;52.52
74230;BME280;62589;12.568;99.958;2022-10-17T00:21:26;101071.16;;;31.09;52.19
74230;BME280;62589;12.568;99.958;2022-10-17T00:23:53;101074.41;;;31.12;52.20
74230;BME280;62589;12.568;99.958;2022-10-17T00:26:20;101074.84;;;31.14;52.65
74230;BME280;62589;12.568;99.958;2022-10-17T00:28:49;101082.78;;;31.15;52.52
74230;BME280;62589;12.568;99.958;2022-10-17T00:31:17;101076.47;;;31.18;52.55
74230;BME280;62589;12.568;99.958;2022-10-17T00:33:44;101091.97;;;31.19;52.42
74230;BME280;62589;12.568;99.958;2022-10-17T00:36:13;101090.78;;;31.20;52.73
74230;BME280;62589;12.568;99.958;2022-10-17T00:38:45;101089.25;;;31.23;52.48
74230;BME280;62589;12.568;99.958;2022-10-17T00:41:15;101092.91;;;31.27;52.30
74230;BME280;62589;12.568;99.958;2022-10-17T00:44:02;101095.06;;;31.37;52.47
74230;BME280;62589;12.568;99.958;2022-10-17T00:46:32;101100.63;;;31.37;52.16
74230;BME280;62589;12.568;99.958;2022-10-17T00:49:07;101102.25;;;31.41;51.97
74230;BME280;62589;12.568;99.958;2022-10-17T00:51:46;101106.41;;;31.51;51.64
74230;BME280;62589;12.568;99.958;2022-10-17T00:54:16;101100.91;;;31.55;51.50
74230;BME280;62589;12.568;99.958;2022-10-17T00:56:43;101098.66;;;31.64;51.32
74230;BME280;62589;12.568;99.958;2022-10-17T00:59:12;101103.63;;;31.74;51.04
74230;BME280;62589;12.568;99.958;2022-10-17T01:01:41;101102.19;;;31.84;50.96
74230;BME280;62589;12.568;99.958;2022-10-17T01:04:09;101095.19;;;31.93;50.81
74230;BME280;62589;12.568;99.958;2022-10-17T01:06:35;101100.47;;;32.02;50.71
74230;BME280;62589;12.568;99.958;2022-10-17T01:09:02;101098.59;;;32.09;50.31
74230;BME280;62589;12.568;99.958;2022-10-17T01:11:46;101099.94;;;32.19;50.39
74230;BME280;62589;12.568;99.958;2022-10-17T01:19:34;101112.50;;;32.09;50.35
74230;BME280;62589;12.568;99.958;2022-10-17T01:25:49;101114.75;;;32.57;48.97
74230;BME280;62589;12.568;99.958;2022-10-17T01:31:21;101119.88;;;32.85;48.77
74230;BME280;62589;12.568;99.958;2022-10-17T01:33:59;101118.03;;;32.96;48.25
74230;BME280;62589;12.568;99.958;2022-10-17T01:36:44;101124.53;;;33.10;47.80
74230;BME280;62589;12.568;99.958;2022-10-17T01:39:38;101121.84;;;33.18;47.49
74230;BME280;62589;12.568;99.958;2022-10-17T01:42:27;101130.28;;;33.28;47.06
74230;BME280;62589;12.568;99.958;2022-10-17T01:47:55;101133.03;;;33.25;46.87
74230;BME280;62589;12.568;99.958;2022-10-17T01:50:27;101142.91;;;33.19;47.05
74230;BME280;62589;12.568;99.958;2022-10-17T01:53:15;101134.97;;;33.21;47.11
74230;BME280;62589;12.568;99.958;2022-10-17T01:55:45;101140.47;;;33.13;47.20
74230;BME280;62589;12.568;99.958;2022-10-17T01:58:24;101130.13;;;33.14;47.41
74230;BME280;62589;12.568;99.958;2022-10-17T02:00:52;101133.28;;;33.12;47.13
74230;BME280;62589;12.568;99.958;2022-10-17T02:03:22;101137.25;;;33.11;47.22
74230;BME280;62589;12.568;99.958;2022-10-17T02:05:49;101138.06;;;33.12;47.43
74230;BME280;62589;12.568;99.958;2022-10-17T02:08:25;101138.00;;;33.08;47.42
74230;BME280;62589;12.568;99.958;2022-10-17T02:11:03;101140.03;;;33.11;47.15
74230;BME280;62589;12.568;99.958;2022-10-17T02:13:53;101136.50;;;33.15;47.18
74230;BME280;62589;12.568;99.958;2022-10-17T02:16:37;101145.19;;;33.09;46.81
74230;BME280;62589;12.568;99.958;2022-10-17T02:19:16;101139.63;;;33.09;46.87
74230;BME280;62589;12.568;99.958;2022-10-17T02:27:44;101142.91;;;33.19;46.67
74230;BME280;62589;12.568;99.958;2022-10-17T02:30:27;101150.88;;;33.20;47.12
74230;BME280;62589;12.568;99.958;2022-10-17T02:35:40;101149.31;;;33.23;46.78
74230;BME280;62589;12.568;99.958;2022-10-17T02:38:09;101150.91;;;33.24;46.48
74230;BME280;62589;12.568;99.958;2022-10-17T02:40:38;101143.00;;;33.26;45.98
74230;BME280;62589;12.568;99.958;2022-10-17T02:43:06;101146.19;;;33.28;45.83
74230;BME280;62589;12.568;99.958;2022-10-17T02:45:34;101146.19;;;33.28;46.30
74230;BME280;62589;12.568;99.958;2022-10-17T02:48:07;101143.06;;;33.33;45.94
74230;BME280;62589;12.568;99.958;2022-10-17T02:53:54;101139.59;;;33.46;45.97
74230;BME280;62589;12.568;99.958;2022-10-17T02:56:24;101140.03;;;33.49;45.52
74230;BME280;62589;12.568;99.958;2022-10-17T02:58:54;101136.09;;;33.53;46.03
74230;BME280;62589;12.568;99.958;2022-10-17T03:01:23;101133.78;;;33.59;45.54
74230;BME280;62589;12.568;99.958;2022-10-17T03:03:50;101124.69;;;33.65;46.17
74230;BME280;62589;12.568;99.958;2022-10-17T03:06:16;101125.09;;;33.71;45.93
74230;BME280;62589;12.568;99.958;2022-10-17T03:08:43;101126.31;;;33.73;45.76
74230;BME280;62589;12.568;99.958;2022-10-17T03:11:09;101125.63;;;33.80;45.73
74230;BME280;62589;12.568;99.958;2022-10-17T03:13:35;101119.66;;;33.82;45.52
74230;BME280;62589;12.568;99.958;2022-10-17T03:16:02;101119.31;;;33.87;45.53
74230;BME280;62589;12.568;99.958;2022-10-17T03:18:28;101119.69;;;33.89;45.60
74230;BME280;62589;12.568;99.958;2022-10-17T03:20:54;101119.34;;;33.94;44.87
74230;BME280;62589;12.568;99.958;2022-10-17T03:23:20;101108.59;;;33.96;44.30
74230;BME280;62589;12.568;99.958;2022-10-17T03:25:47;101115.78;;;33.97;44.52
74230;BME280;62589;12.568;99.958;2022-10-17T03:28:13;101111.81;;;33.98;43.88
74230;BME280;62589;12.568;99.958;2022-10-17T03:30:39;101118.97;;;33.99;44.09
74230;BME280;62589;12.568;99.958;2022-10-17T03:33:06;101113.81;;;34.01;43.98
74230;BME280;62589;12.568;99.958;2022-10-17T03:35:32;101113.81;;;34.01;44.03
74230;BME280;62589;12.568;99.958;2022-10-17T03:37:58;101103.13;;;34.06;44.12
74230;BME280;62589;12.568;99.958;2022-10-17T03:40:25;101102.31;;;34.09;44.38
74230;BME280;62589;12.568;99.958;2022-10-17T03:42:51;101098.34;;;34.10;44.21
74230;BME280;62589;12.568;99.958;2022-10-17T03:45:17;101097.19;;;34.15;44.19
74230;BME280;62589;12.568;99.958;2022-10-17T03:47:44;101092.84;;;34.21;43.84
74230;BME280;62589;12.568;99.958;2022-10-17T03:50:10;101094.53;;;34.29;44.11
74230;BME280;62589;12.568;99.958;2022-10-17T03:52:37;101086.56;;;34.35;43.81
74230;BME280;62589;12.568;99.958;2022-10-17T03:55:03;101085.81;;;34.41;43.36
74230;BME280;62589;12.568;99.958;2022-10-17T03:57:30;101069.09;;;34.49;43.11
74230;BME280;62589;12.568;99.958;2022-10-17T03:59:56;101065.91;;;34.54;43.01
74230;BME280;62589;12.568;99.958;2022-10-17T04:02:22;101063.97;;;34.61;42.80
74230;BME280;62589;12.568;99.958;2022-10-17T04:04:49;101059.59;;;34.64;42.61
74230;BME280;62589;12.568;99.958;2022-10-17T04:07:15;101050.84;;;34.69;42.49
74230;BME280;62589;12.568;99.958;2022-10-17T04:09:42;101038.50;;;34.77;41.91
74230;BME280;62589;12.568;99.958;2022-10-17T04:12:08;101030.19;;;34.80;41.77
74230;BME280;62589;12.568;99.958;2022-10-17T04:14:35;101032.59;;;34.86;41.50
74230;BME280;62589;12.568;99.958;2022-10-17T04:17:02;101023.41;;;34.89;40.59
74230;BME280;62589;12.568;99.958;2022-10-17T04:19:29;101016.22;;;34.95;41.07
74230;BME280;62589;12.568;99.958;2022-10-17T04:21:55;101016.66;;;35.00;41.23
74230;BME280;62589;12.568;99.958;2022-10-17T04:24:21;101003.09;;;35.06;40.71
74230;BME280;62589;12.568;99.958;2022-10-17T04:26:49;100998.72;;;35.12;40.94
74230;BME280;62589;12.568;99.958;2022-10-17T04:29:16;100993.13;;;35.19;41.04
74230;BME280;62589;12.568;99.958;2022-10-17T04:31:42;100989.16;;;35.31;41.03
74230;BME280;62589;12.568;99.958;2022-10-17T04:34:09;100985.16;;;35.39;40.89
74230;BME280;62589;12.568;99.958;2022-10-17T04:36:35;100985.16;;;35.46;41.04
74230;BME280;62589;12.568;99.958;2022-10-17T04:39:01;100981.94;;;35.55;40.47
74230;BME280;62589;12.568;99.958;2022-10-17T04:41:29;100982.31;;;35.60;40.79
74230;BME280;62589;12.568;99.958;2022-10-17T04:43:56;100981.13;;;35.61;40.27
74230;BME280;62589;12.568;99.958;2022-10-17T04:46:22;100966.38;;;35.61;39.35
74230;BME280;62589;12.568;99.958;2022-10-17T04:48:49;100969.16;;;35.68;39.29
74230;BME280;62589;12.568;99.958;2022-10-17T04:51:17;100958.38;;;35.70;39.24
74230;BME280;62589;12.568;99.958;2022-10-17T04:53:44;100944.78;;;35.72;39.49
74230;BME280;62589;12.568;99.958;2022-10-17T04:56:14;100938.41;;;35.78;39.87
74230;BME280;62589;12.568;99.958;2022-10-17T04:58:41;100940.00;;;35.79;39.09
74230;BME280;62589;12.568;99.958;2022-10-17T05:01:10;100927.22;;;35.82;38.19
74230;BME280;62589;12.568;99.958;2022-10-17T05:03:37;100928.00;;;35.90;37.98
74230;BME280;62589;12.568;99.958;2022-10-17T05:06:09;100924.75;;;35.98;37.74
74230;BME280;62589;12.568;99.958;2022-10-17T05:08:36;100923.91;;;36.05;38.10
74230;BME280;62589;12.568;99.958;2022-10-17T05:11:03;100925.88;;;36.11;37.81
74230;BME280;62589;12.568;99.958;2022-10-17T05:13:31;100925.47;;;36.17;37.89
74230;BME280;62589;12.568;99.958;2022-10-17T05:15:59;100914.22;;;36.24;37.50
74230;BME280;62589;12.568;99.958;2022-10-17T05:18:27;100907.84;;;36.27;37.42
74230;BME280;62589;12.568;99.958;2022-10-17T05:20:54;100899.06;;;36.28;37.05
74230;BME280;62589;12.568;99.958;2022-10-17T05:23:20;100890.25;;;36.33;36.89
74230;BME280;62589;12.568;99.958;2022-10-17T05:25:46;100891.78;;;36.41;36.96
74230;BME280;62589;12.568;99.958;2022-10-17T05:28:13;100882.94;;;36.46;36.84
74230;BME280;62589;12.568;99.958;2022-10-17T05:30:39;100878.13;;;36.51;36.73
74230;BME280;62589;12.568;99.958;2022-10-17T05:33:07;100866.97;;;36.47;36.57
74230;BME280;62589;12.568;99.958;2022-10-17T05:35:33;100865.31;;;36.57;36.69
74230;BME280;62589;12.568;99.958;2022-10-17T05:38:00;100856.53;;;36.55;36.56
74230;BME280;62589;12.568;99.958;2022-10-17T05:40:26;100856.53;;;36.55;36.51
74230;BME280;62589;12.568;99.958;2022-10-17T05:42:53;100851.75;;;36.52;36.32
74230;BME280;62589;12.568;99.958;2022-10-17T05:45:19;100839.78;;;36.51;35.67
74230;BME280;62589;12.568;99.958;2022-10-17T05:47:45;100823.81;;;36.48;35.95
74230;BME280;62589;12.568;99.958;2022-10-17T05:50:12;100834.19;;;36.51;36.13
74230;BME280;62589;12.568;99.958;2022-10-17T05:52:39;100821.44;;;36.46;35.52
74230;BME280;62589;12.568;99.958;2022-10-17T05:55:10;100813.41;;;36.48;35.52
74230;BME280;62589;12.568;99.958;2022-10-17T05:57:39;100801.84;;;36.46;35.42
74230;BME280;62589;12.568;99.958;2022-10-17T06:00:06;100803.03;;;36.49;35.52
74230;BME280;62589;12.568;99.958;2022-10-17T06:02:33;100790.22;;;36.52;35.64
74230;BME280;62589;12.568;99.958;2022-10-17T06:04:59;100788.63;;;36.51;35.52
74230;BME280;62589;12.568;99.958;2022-10-17T06:07:25;100775.88;;;36.49;35.63
74230;BME280;62589;12.568;99.958;2022-10-17T06:09:52;100777.03;;;36.52;35.45
74230;BME280;62589;12.568;99.958;2022-10-17T06:12:18;100765.44;;;36.54;35.51
74230;BME280;62589;12.568;99.958;2022-10-17T06:14:44;100764.63;;;36.57;35.70
74230;BME280;62589;12.568;99.958;2022-10-17T06:17:11;100760.97;;;36.60;35.56
74230;BME280;62589;12.568;99.958;2022-10-17T06:19:37;100755.75;;;36.62;35.04
74230;BME280;62589;12.568;99.958;2022-10-17T06:22:06;100756.56;;;36.62;34.90
74230;BME280;62589;12.568;99.958;2022-10-17T06:24:33;100751.75;;;36.63;34.95
74230;BME280;62589;12.568;99.958;2022-10-17T06:26:59;100741.38;;;36.60;34.75
74230;BME280;62589;12.568;99.958;2022-10-17T06:29:25;100741.38;;;36.60;34.69
74230;BME280;62589;12.568;99.958;2022-10-17T06:31:52;100730.25;;;36.56;34.74
74230;BME280;62589;12.568;99.958;2022-10-17T06:34:19;100721.91;;;36.53;34.98
74230;BME280;62589;12.568;99.958;2022-10-17T06:36:47;100719.13;;;36.49;35.25
74230;BME280;62589;12.568;99.958;2022-10-17T06:39:13;100718.31;;;36.52;35.24
74230;BME280;62589;12.568;99.958;2022-10-17T06:41:40;100708.75;;;36.49;35.20
74230;BME280;62589;12.568;99.958;2022-10-17T06:44:08;100711.50;;;36.53;35.64
74230;BME280;62589;12.568;99.958;2022-10-17T06:46:37;100706.34;;;36.52;35.62
74230;BME280;62589;12.568;99.958;2022-10-17T06:49:04;100695.16;;;36.52;35.29
74230;BME280;62589;12.568;99.958;2022-10-17T06:51:34;100692.38;;;36.48;35.01
74230;BME280;62589;12.568;99.958;2022-10-17T06:54:02;100692.75;;;36.50;35.47
74230;BME280;62589;12.568;99.958;2022-10-17T06:56:29;100694.31;;;36.55;35.51
74230;BME280;62589;12.568;99.958;2022-10-17T06:58:56;100696.72;;;36.53;35.67
74230;BME280;62589;12.568;99.958;2022-10-17T07:01:22;100687.13;;;36.54;35.87
74230;BME280;62589;12.568;99.958;2022-10-17T07:03:49;100690.34;;;36.52;35.40
74230;BME280;62589;12.568;99.958;2022-10-17T07:06:17;100673.97;;;36.51;35.21
74230;BME280;62589;12.568;99.958;2022-10-17T07:08:44;100687.13;;;36.54;35.50
74230;BME280;62589;12.568;99.958;2022-10-17T07:11:17;100686.75;;;36.52;35.51
74230;BME280;62589;12.568;99.958;2022-10-17T07:13:45;100679.16;;;36.52;35.73
74230;BME280;62589;12.568;99.958;2022-10-17T07:16:15;100670.78;;;36.52;35.48
74230;BME280;62589;12.568;99.958;2022-10-17T07:18:42;100661.56;;;36.55;35.51
74230;BME280;62589;12.568;99.958;2022-10-17T07:21:09;100668.78;;;36.53;35.69
74230;BME280;62589;12.568;99.958;2022-10-17T07:23:37;100668.81;;;36.49;34.88
74230;BME280;62589;12.568;99.958;2022-10-17T07:26:12;100661.66;;;36.44;35.12
74230;BME280;62589;12.568;99.958;2022-10-17T07:28:41;100653.22;;;36.48;34.82
74230;BME280;62589;12.568;99.958;2022-10-17T07:31:11;100645.28;;;36.43;35.04
74230;BME280;62589;12.568;99.958;2022-10-17T07:33:38;100647.28;;;36.42;35.60
74230;BME280;62589;12.568;99.958;2022-10-17T07:36:05;100644.13;;;36.40;35.76
74230;BME280;62589;12.568;99.958;2022-10-17T07:38:32;100645.72;;;36.41;35.82
74230;BME280;62589;12.568;99.958;2022-10-17T07:41:03;100644.91;;;36.41;35.70
74230;BME280;62589;12.568;99.958;2022-10-17T07:43:30;100636.94;;;36.39;35.73
74230;BME280;62589;12.568;99.958;2022-10-17T07:45:57;100634.53;;;36.41;35.90
74230;BME280;62589;12.568;99.958;2022-10-17T07:48:26;100638.16;;;36.38;35.49
74230;BME280;62589;12.568;99.958;2022-10-17T07:50:53;100628.63;;;36.36;35.41
74230;BME280;62589;12.568;99.958;2022-10-17T07:53:20;100629.81;;;36.35;35.71
74230;BME280;62589;12.568;99.958;2022-10-17T07:55:46;100626.66;;;36.33;35.73
74230;BME280;62589;12.568;99.958;2022-10-17T07:58:14;100622.69;;;36.30;35.27
74230;BME280;62589;12.568;99.958;2022-10-17T08:00:41;100621.88;;;36.30;35.45
74230;BME280;62589;12.568;99.958;2022-10-17T08:03:09;100609.91;;;36.29;35.95
74230;BME280;62589;12.568;99.958;2022-10-17T08:05:36;100617.09;;;36.30;36.13
74230;BME280;62589;12.568;99.958;2022-10-17T08:08:03;100608.69;;;36.30;35.71
74230;BME280;62589;12.568;99.958;2022-10-17T08:10:29;100594.72;;;36.30;35.84
74230;BME280;62589;12.568;99.958;2022-10-17T08:12:57;100593.13;;;36.29;35.91
74230;BME280;62589;12.568;99.958;2022-10-17T08:15:25;100600.31;;;36.30;35.89
74230;BME280;62589;12.568;99.958;2022-10-17T08:17:55;100590.34;;;36.29;35.74
74230;BME280;62589;12.568;99.958;2022-10-17T08:20:21;100591.13;;;36.30;36.06
74230;BME280;62589;12.568;99.958;2022-10-17T08:22:55;100588.78;;;36.25;35.82
74230;BME280;62589;12.568;99.958;2022-10-17T08:25:22;100593.16;;;36.26;35.78
74230;BME280;62589;12.568;99.958;2022-10-17T08:27:49;100578.78;;;36.24;36.02
74230;BME280;62589;12.568;99.958;2022-10-17T08:30:19;100583.56;;;36.23;36.42
74230;BME280;62589;12.568;99.958;2022-10-17T08:32:45;100586.00;;;36.21;36.67
74230;BME280;62589;12.568;99.958;2022-10-17T08:35:13;100577.66;;;36.17;36.65
74230;BME280;62589;12.568;99.958;2022-10-17T08:37:41;100577.72;;;36.14;36.57
74230;BME280;62589;12.568;99.958;2022-10-17T08:40:21;100582.13;;;36.11;36.07
74230;BME280;62589;12.568;99.958;2022-10-17T08:43:13;100579.66;;;36.17;36.17
74230;BME280;62589;12.568;99.958;2022-10-17T08:45:52;100577.34;;;36.08;36.66
74230;BME280;62589;12.568;99.958;2022-10-17T08:48:23;100578.97;;;36.06;36.66
74230;BME280;62589;12.568;99.958;2022-10-17T08:56:41;100578.22;;;36.02;36.73
74230;BME280;62589;12.568;99.958;2022-10-17T08:59:26;100578.22;;;36.02;36.75
74230;BME280;62589;12.568;99.958;2022-10-17T09:02:21;100578.22;;;36.02;36.64
74230;BME280;62589;12.568;99.958;2022-10-17T09:11:02;100581.94;;;35.92;36.99
74230;BME280;62589;12.568;99.958;2022-10-17T09:14:03;100586.31;;;35.93;36.73
74230;BME280;62589;12.568;99.958;2022-10-17T09:19:36;100592.34;;;35.88;36.88
74230;BME280;62589;12.568;99.958;2022-10-17T09:22:12;100593.97;;;35.85;37.06
74230;BME280;62589;12.568;99.958;2022-10-17T09:25:02;100588.34;;;35.89;36.89
74230;BME280;62589;12.568;99.958;2022-10-17T09:27:37;100589.19;;;35.82;37.51
74230;BME280;62589;12.568;99.958;2022-10-17T09:32:55;100590.41;;;35.77;37.33
74230;BME280;62589;12.568;99.958;2022-10-17T09:35:23;100594.41;;;35.76;37.61
74230;BME280;62589;12.568;99.958;2022-10-17T09:37:51;100588.84;;;35.76;37.55
74230;BME280;62589;12.568;99.958;2022-10-17T09:40:25;100589.28;;;35.71;37.38
74230;BME280;62589;12.568;99.958;2022-10-17T09:42:53;100591.28;;;35.71;36.94
74230;BME280;62589;12.568;99.958;2022-10-17T09:45:21;100598.47;;;35.68;37.47
74230;BME280;62589;12.568;99.958;2022-10-17T09:50:43;100600.50;;;35.64;37.14
74230;BME280;62589;12.568;99.958;2022-10-17T09:53:29;100592.13;;;35.64;37.14
74230;BME280;62589;12.568;99.958;2022-10-17T09:55:58;100595.34;;;35.59;37.11
74230;BME280;62589;12.568;99.958;2022-10-17T09:58:47;100596.13;;;35.60;37.30
74230;BME280;62589;12.568;99.958;2022-10-17T10:01:27;100596.97;;;35.57;37.09
74230;BME280;62589;12.568;99.958;2022-10-17T10:04:13;100594.56;;;35.55;37.06
74230;BME280;62589;12.568;99.958;2022-10-17T10:06:59;100598.25;;;35.48;36.92
74230;BME280;62589;12.568;99.958;2022-10-17T10:09:29;100593.84;;;35.47;37.03
74230;BME280;62589;12.568;99.958;2022-10-17T10:11:59;100605.84;;;35.44;36.41
74230;BME280;62589;12.568;99.958;2022-10-17T10:14:35;100609.84;;;35.40;36.19
74230;BME280;62589;12.568;99.958;2022-10-17T10:19:50;100615.06;;;35.38;35.74
74230;BME280;62589;12.568;99.958;2022-10-17T10:22:21;100613.06;;;35.35;36.18
74230;BME280;62589;12.568;99.958;2022-10-17T10:25:06;100615.06;;;35.38;36.57
74230;BME280;62589;12.568;99.958;2022-10-17T10:27:33;100626.69;;;35.33;36.50
74230;BME280;62589;12.568;99.958;2022-10-17T10:30:01;100625.09;;;35.32;36.91
74230;BME280;62589;12.568;99.958;2022-10-17T10:32:32;100634.66;;;35.31;36.57
74230;BME280;62589;12.568;99.958;2022-10-17T10:35:23;100629.06;;;35.31;36.54
74230;BME280;62589;12.568;99.958;2022-10-17T10:37:55;100631.47;;;35.25;36.42
74230;BME280;62589;12.568;99.958;2022-10-17T10:40:36;100634.66;;;35.24;36.49
74230;BME280;62589;12.568;99.958;2022-10-17T10:43:05;100632.28;;;35.22;37.13
74230;BME280;62589;12.568;99.958;2022-10-17T10:45:50;100643.44;;;35.26;36.63
74230;BME280;62589;12.568;99.958;2022-10-17T10:48:31;100637.88;;;35.19;36.83
74230;BME280;62589;12.568;99.958;2022-10-17T10:51:12;100643.06;;;35.17;36.88
74230;BME280;62589;12.568;99.958;2022-10-17T10:56:40;100642.28;;;35.16;37.35
74230;BME280;62589;12.568;99.958;2022-10-17T10:59:22;100644.31;;;35.12;37.43
74230;BME280;62589;12.568;99.958;2022-10-17T11:08:09;100649.50;;;35.10;37.55
74230;BME280;62589;12.568;99.958;2022-10-17T11:10:54;100660.31;;;35.01;37.87
74230;BME280;62589;12.568;99.958;2022-10-17T11:13:25;100657.91;;;34.99;38.43
74230;BME280;62589;12.568;99.958;2022-10-17T11:19:02;100659.91;;;34.95;38.38
74230;BME280;62589;12.568;99.958;2022-10-17T11:21:56;100670.69;;;34.93;39.28
74230;BME280;62589;12.568;99.958;2022-10-17T11:24:29;100670.72;;;34.90;39.67
74230;BME280;62589;12.568;99.958;2022-10-17T11:27:03;100681.09;;;34.86;39.75
74230;BME280;62589;12.568;99.958;2022-10-17T11:29:33;100671.53;;;34.83;39.81
74230;BME280;62589;12.568;99.958;2022-10-17T11:32:14;100681.91;;;34.79;39.73
74230;BME280;62589;12.568;99.958;2022-10-17T11:34:47;100684.28;;;34.77;39.43
74230;BME280;62589;12.568;99.958;2022-10-17T11:37:20;100676.31;;;34.72;39.49
74230;BME280;62589;12.568;99.958;2022-10-17T11:39:55;100685.13;;;34.70;39.07
74230;BME280;62589;12.568;99.958;2022-10-17T11:42:29;100683.91;;;34.68;39.02
74230;BME280;62589;12.568;99.958;2022-10-17T11:45:03;100687.13;;;34.66;38.87
74230;BME280;62589;12.568;99.958;2022-10-17T11:47:51;100697.06;;;34.67;39.14
74230;BME280;62589;12.568;99.958;2022-10-17T11:50:31;100693.88;;;34.62;39.25
74230;BME280;62589;12.568;99.958;2022-10-17T11:53:19;100701.84;;;34.63;39.24
74230;BME280;62589;12.568;99.958;2022-10-17T11:55:47;100696.28;;;34.53;39.78
74230;BME280;62589;12.568;99.958;2022-10-17T11:58:56;100707.44;;;34.56;39.58
74230;BME280;62589;12.568;99.958;2022-10-17T12:01:34;100713.84;;;34.50;39.32
74230;BME280;62589;12.568;99.958;2022-10-17T12:19:22;100725.00;;;34.35;39.03
74230;BME280;62589;12.568;99.958;2022-10-17T12:24:56;100743.34;;;34.29;38.77
74230;BME280;62589;12.568;99.958;2022-10-17T12:27:41;100739.31;;;34.30;39.37
74230;BME280;62589;12.568;99.958;2022-10-17T12:30:30;100745.31;;;34.32;39.26
74230;BME280;62589;12.568;99.958;2022-10-17T12:33:05;100747.69;;;34.27;39.55
74230;BME280;62589;12.568;99.958;2022-10-17T12:35:47;100751.28;;;34.27;39.99
74230;BME280;62589;12.568;99.958;2022-10-17T12:38:21;100752.06;;;34.24;39.94
74230;BME280;62589;12.568;99.958;2022-10-17T12:40:51;100752.84;;;34.25;40.31
74230;BME280;62589;12.568;99.958;2022-10-17T12:49:39;100767.19;;;34.27;40.15
74230;BME280;62589;12.568;99.958;2022-10-17T12:55:17;100781.53;;;34.22;40.37
74230;BME280;62589;12.568;99.958;2022-10-17T12:58:09;100784.31;;;34.25;40.47
74230;BME280;62589;12.568;99.958;2022-10-17T13:00:51;100783.91;;;34.23;39.87
74230;BME280;62589;12.568;99.958;2022-10-17T13:03:32;100794.25;;;34.19;40.24
74230;BME280;62589;12.568;99.958;2022-10-17T13:06:02;100792.66;;;34.18;40.12
74230;BME280;62589;12.568;99.958;2022-10-17T13:08:37;100792.25;;;34.16;40.38
74230;BME280;62589;12.568;99.958;2022-10-17T13:11:04;100805.78;;;34.18;39.81
74230;BME280;62589;12.568;99.958;2022-10-17T13:13:44;100808.56;;;34.18;40.38
74230;BME280;62589;12.568;99.958;2022-10-17T13:16:28;100806.59;;;34.18;40.37
74230;BME280;62589;12.568;99.958;2022-10-17T13:18:55;100806.97;;;34.17;40.08
74230;BME280;62589;12.568;99.958;2022-10-17T13:21:22;100810.16;;;34.15;40.39
74230;BME280;62589;12.568;99.958;2022-10-17T13:23:49;100810.97;;;34.16;40.44
74230;BME280;62589;12.568;99.958;2022-10-17T13:26:23;100822.09;;;34.12;40.39
74230;BME280;62589;12.568;99.958;2022-10-17T13:29:08;100826.88;;;34.15;40.03
74230;BME280;62589;12.568;99.958;2022-10-17T13:31:37;100834.44;;;34.11;40.11
74230;BME280;62589;12.568;99.958;2022-10-17T13:34:14;100829.25;;;34.09;40.53
74230;BME280;62589;12.568;99.958;2022-10-17T13:36:42;100836.41;;;34.10;39.94
74230;BME280;62589;12.568;99.958;2022-10-17T13:39:13;100839.59;;;34.09;39.90
74230;BME280;62589;12.568;99.958;2022-10-17T13:41:41;100845.19;;;34.09;39.70
74230;BME280;62589;12.568;99.958;2022-10-17T13:44:15;100847.59;;;34.07;40.00
74230;BME280;62589;12.568;99.958;2022-10-17T13:46:43;100853.16;;;34.07;39.95
74230;BME280;62589;12.568;99.958;2022-10-17T13:49:20;100855.16;;;34.06;39.91
74230;BME280;62589;12.568;99.958;2022-10-17T13:51:50;100867.09;;;34.07;39.99
74230;BME280;62589;12.568;99.958;2022-10-17T13:56:58;100853.16;;;34.07;39.99
74230;BME280;62589;12.568;99.958;2022-10-17T13:59:31;100872.25;;;34.05;39.96
74230;BME280;62589;12.568;99.958;2022-10-17T14:01:59;100869.06;;;34.06;40.41
74230;BME280;62589;12.568;99.958;2022-10-17T14:04:27;100873.06;;;34.05;40.37
74230;BME280;62589;12.568;99.958;2022-10-17T14:06:54;100866.69;;;34.05;40.20
74230;BME280;62589;12.568;99.958;2022-10-17T14:09:24;100881.00;;;34.03;40.64
74230;BME280;62589;12.568;99.958;2022-10-17T14:12:11;100875.44;;;34.07;40.42
74230;BME280;62589;12.568;99.958;2022-10-17T14:14:40;100883.38;;;34.01;40.08
74230;BME280;62589;12.568;99.958;2022-10-17T14:17:16;100890.56;;;34.13;40.18
74230;BME280;62589;12.568;99.958;2022-10-17T14:19:53;100882.19;;;33.99;39.64
74230;BME280;62589;12.568;99.958;2022-10-17T14:22:28;100885.75;;;33.96;40.33
74230;BME280;62589;12.568;99.958;2022-10-17T14:24:55;100890.91;;;33.94;39.94
74230;BME280;62589;12.568;99.958;2022-10-17T14:27:34;100885.72;;;33.92;39.87
74230;BME280;62589;12.568;99.958;2022-10-17T14:30:33;100884.16;;;33.88;39.60
74230;BME280;62589;12.568;99.958;2022-10-17T14:32:49;100885.34;;;33.87;39.68
74230;BME280;62589;12.568;99.958;2022-10-17T14:35:17;100879.34;;;33.85;39.43